createdAt,value
2023-03-06T00:00:46.745Z,7.38
2023-03-06T00:03:13.243Z,7.37
2023-03-06T00:05:39.953Z,7.35
2023-03-06T00:08:06.601Z,7.37
2023-03-06T00:10:33.568Z,7.26
2023-03-06T00:13:02.634Z,7.24
2023-03-06T00:15:29.620Z,7.12
2023-03-06T00:17:56.364Z,7.18
2023-03-06T00:20:23.406Z,7.11
2023-03-06T00:22:50.117Z,7.16
2023-03-06T00:25:19.272Z,7.03
2023-03-06T00:27:45.852Z,7.15
2023-03-06T00:30:16.401Z,7.12
2023-03-06T00:32:43.376Z,6.78
2023-03-06T00:35:10.726Z,6.80
2023-03-06T00:37:37.082Z,6.67
2023-03-06T00:40:08.416Z,6.83
2023-03-06T00:42:34.846Z,6.95
2023-03-06T00:45:01.305Z,6.98
2023-03-06T00:47:27.765Z,6.88
2023-03-06T00:49:54.130Z,7.02
2023-03-06T00:52:20.587Z,6.71
2023-03-06T00:54:46.972Z,6.62
2023-03-06T00:57:13.367Z,6.72
2023-03-06T00:59:39.714Z,6.80
2023-03-06T01:02:06.639Z,6.81
2023-03-06T01:04:33.071Z,6.78
2023-03-06T01:06:59.542Z,6.68
2023-03-06T01:09:26.126Z,6.66
2023-03-06T01:11:52.448Z,6.66
2023-03-06T01:14:21.801Z,6.58
2023-03-06T01:16:48.927Z,6.39
2023-03-06T01:19:15.321Z,6.30
2023-03-06T01:21:41.730Z,6.22
2023-03-06T01:24:08.356Z,6.26
2023-03-06T01:26:34.889Z,5.98
2023-03-06T01:29:01.617Z,6.13
2023-03-06T01:31:28.385Z,6.45
2023-03-06T01:33:54.937Z,6.38
2023-03-06T01:36:21.332Z,6.49
2023-03-06T01:38:47.725Z,6.61
2023-03-06T01:41:17.184Z,6.48
2023-03-06T01:43:46.177Z,6.64
2023-03-06T01:46:21.692Z,6.56
2023-03-06T01:48:50.230Z,6.62
2023-03-06T01:51:16.972Z,6.47
2023-03-06T01:53:43.862Z,6.55
2023-03-06T01:56:13.222Z,6.43
2023-03-06T01:58:43.517Z,6.46
2023-03-06T02:01:12.910Z,6.42
2023-03-06T02:03:41.313Z,6.38
2023-03-06T02:06:08.801Z,6.26
2023-03-06T02:08:35.472Z,6.27
2023-03-06T02:11:09.427Z,6.24
2023-03-06T02:13:37.055Z,6.31
2023-03-06T02:16:03.729Z,6.19
2023-03-06T02:18:31.918Z,6.16
2023-03-06T02:21:02.450Z,6.18
2023-03-06T02:23:48.834Z,6.04
2023-03-06T02:26:16.163Z,6.20
2023-03-06T02:28:42.636Z,6.26
2023-03-06T02:31:21.990Z,6.35
2023-03-06T02:34:01.146Z,6.33
2023-03-06T02:36:28.682Z,6.31
2023-03-06T02:38:55.243Z,6.32
2023-03-06T02:41:21.742Z,6.14
2023-03-06T02:43:51.166Z,6.02
2023-03-06T02:46:17.760Z,6.05
2023-03-06T02:48:44.420Z,6.04
2023-03-06T02:51:10.806Z,5.96
2023-03-06T02:53:37.130Z,5.89
2023-03-06T02:56:03.550Z,5.92
2023-03-06T02:58:29.899Z,5.94
2023-03-06T03:00:56.276Z,5.98
2023-03-06T03:03:22.726Z,5.90
2023-03-06T03:05:49.109Z,5.84
2023-03-06T03:08:15.884Z,5.89
2023-03-06T03:10:42.285Z,5.84
2023-03-06T03:13:08.699Z,5.90
2023-03-06T03:15:35.140Z,5.90
2023-03-06T03:18:01.544Z,5.91
2023-03-06T03:20:27.865Z,6.04
2023-03-06T03:22:55.341Z,5.90
2023-03-06T03:25:23.766Z,5.84
2023-03-06T03:27:50.211Z,5.85
2023-03-06T03:30:17.289Z,5.87
2023-03-06T03:32:43.649Z,5.87
2023-03-06T03:35:11.081Z,5.85
2023-03-06T03:37:38.011Z,5.87
2023-03-06T03:40:06.538Z,5.81
2023-03-06T03:42:32.925Z,5.81
2023-03-06T03:45:00.887Z,5.78
2023-03-06T03:47:27.265Z,5.79
2023-03-06T03:49:53.632Z,5.75
2023-03-06T03:52:20.006Z,5.65
2023-03-06T03:54:46.388Z,5.60
2023-03-06T03:57:12.752Z,5.55
2023-03-06T03:59:39.115Z,5.65
2023-03-06T04:02:05.580Z,5.71
2023-03-06T04:04:31.992Z,5.75
2023-03-06T04:06:58.408Z,5.72
2023-03-06T04:09:24.799Z,5.57
2023-03-06T04:11:51.174Z,5.63
2023-03-06T04:14:17.652Z,5.59
2023-03-06T04:16:44.104Z,5.47
2023-03-06T04:19:11.553Z,5.40
2023-03-06T04:21:37.962Z,5.39
2023-03-06T04:24:04.737Z,5.52
2023-03-06T04:26:31.093Z,5.53
2023-03-06T04:28:58.425Z,5.26
2023-03-06T04:31:24.915Z,5.13
2023-03-06T04:33:51.312Z,5.08
2023-03-06T04:36:29.206Z,4.98
2023-03-06T04:38:56.124Z,4.53
2023-03-06T04:41:23.318Z,4.62
2023-03-06T04:43:50.337Z,4.64
2023-03-06T04:46:17.213Z,4.36
2023-03-06T04:48:45.233Z,3.52
2023-03-06T04:51:13.384Z,3.64
2023-03-06T04:53:39.949Z,3.64
2023-03-06T04:56:06.973Z,3.54
2023-03-06T04:58:33.476Z,3.67
2023-03-06T05:00:59.836Z,3.90
2023-03-06T05:03:26.301Z,3.78
2023-03-06T05:05:52.685Z,4.17
2023-03-06T05:08:19.128Z,4.40
2023-03-06T05:10:46.196Z,4.57
2023-03-06T05:13:12.732Z,4.66
2023-03-06T05:15:42.041Z,4.78
2023-03-06T05:18:08.537Z,4.64
2023-03-06T05:20:34.997Z,4.81
2023-03-06T05:23:01.681Z,4.91
2023-03-06T05:25:28.017Z,5.07
2023-03-06T05:27:54.346Z,5.03
2023-03-06T05:30:23.015Z,5.15
2023-03-06T05:32:49.664Z,5.28
2023-03-06T05:35:18.783Z,5.26
2023-03-06T05:37:45.909Z,5.19
2023-03-06T05:40:13.167Z,5.21
2023-03-06T05:42:39.611Z,5.33
2023-03-06T05:45:06.529Z,5.22
2023-03-06T05:47:33.253Z,5.29
2023-03-06T05:49:59.886Z,5.29
2023-03-06T05:52:26.233Z,5.25
2023-03-06T05:54:54.384Z,5.21
2023-03-06T05:57:22.730Z,4.93
2023-03-06T05:59:50.250Z,4.61
2023-03-06T06:02:17.754Z,4.33
2023-03-06T06:04:45.437Z,4.27
2023-03-06T06:07:15.877Z,4.08
2023-03-06T06:09:45.213Z,3.47
2023-03-06T06:12:12.146Z,3.36
2023-03-06T06:14:38.493Z,3.44
2023-03-06T06:17:05.313Z,3.24
2023-03-06T06:19:31.753Z,3.07
2023-03-06T06:21:58.522Z,3.03
2023-03-06T06:24:26.225Z,3.18
2023-03-06T06:26:54.749Z,3.28
2023-03-06T06:29:22.051Z,3.17
2023-03-06T06:31:48.816Z,2.97
2023-03-06T06:34:15.289Z,2.91
2023-03-06T06:36:41.844Z,3.04
2023-03-06T06:39:09.069Z,3.47
2023-03-06T06:41:54.868Z,3.88
2023-03-06T06:44:21.961Z,3.83
2023-03-06T06:49:36.438Z,3.88
2023-03-06T06:52:03.029Z,4.20
2023-03-06T06:54:29.480Z,4.13
2023-03-06T06:56:55.813Z,4.00
2023-03-06T06:59:23.558Z,4.09
2023-03-06T07:01:52.967Z,4.41
2023-03-06T07:04:20.020Z,4.10
2023-03-06T07:06:46.737Z,4.07
2023-03-06T07:09:13.754Z,4.16
2023-03-06T07:11:40.964Z,3.91
2023-03-06T07:14:07.309Z,3.61
2023-03-06T07:16:34.125Z,3.70
2023-03-06T07:19:00.574Z,3.67
2023-03-06T07:21:26.968Z,3.23
2023-03-06T07:23:54.219Z,3.26
2023-03-06T07:26:20.563Z,3.48
2023-03-06T07:28:52.771Z,3.42
2023-03-06T07:31:25.623Z,3.58
2023-03-06T07:33:53.855Z,3.55
2023-03-06T07:36:21.196Z,3.72
2023-03-06T07:38:47.624Z,3.81
2023-03-06T07:41:16.216Z,3.47
2023-03-06T07:43:44.223Z,3.57
2023-03-06T07:46:12.642Z,3.71
2023-03-06T07:48:40.088Z,3.60
2023-03-06T07:51:12.026Z,3.50
2023-03-06T07:53:38.368Z,3.30
2023-03-06T07:56:08.742Z,3.41
2023-03-06T07:58:36.724Z,3.38
2023-03-06T08:01:05.018Z,3.12
2023-03-06T08:03:31.437Z,3.07
2023-03-06T08:06:11.654Z,3.18
2023-03-06T08:08:40.261Z,3.41
2023-03-06T08:11:07.942Z,3.32
2023-03-06T08:13:34.796Z,3.51
2023-03-06T08:16:01.329Z,3.72
2023-03-06T08:18:27.966Z,3.63
2023-03-06T08:21:15.899Z,3.26
2023-03-06T08:23:43.366Z,3.36
2023-03-06T08:26:15.456Z,3.52
2023-03-06T08:28:42.711Z,3.37
2023-03-06T08:31:12.919Z,3.31
2023-03-06T08:33:40.395Z,3.25
2023-03-06T08:36:07.244Z,3.21
2023-03-06T08:38:33.569Z,3.24
2023-03-06T08:40:59.872Z,3.32
2023-03-06T08:43:26.248Z,3.60
2023-03-06T08:45:53.822Z,3.89
2023-03-06T08:48:20.427Z,3.66
2023-03-06T08:50:47.993Z,3.77
2023-03-06T08:53:14.510Z,3.77
2023-03-06T08:55:40.933Z,3.68
2023-03-06T08:58:07.292Z,3.66
2023-03-06T09:00:33.700Z,3.80
2023-03-06T09:03:00.199Z,4.00
2023-03-06T09:05:26.592Z,3.92
2023-03-06T09:07:53.244Z,3.84
2023-03-06T09:10:22.793Z,3.79
2023-03-06T09:12:52.477Z,4.00
2023-03-06T09:15:21.881Z,3.95
2023-03-06T09:17:48.294Z,4.24
2023-03-06T09:20:15.191Z,4.31
2023-03-06T09:22:45.557Z,4.15
2023-03-06T09:25:20.132Z,4.06
2023-03-06T09:27:53.425Z,4.15
2023-03-06T09:30:28.386Z,4.42
2023-03-06T09:32:54.727Z,4.47
2023-03-06T09:35:21.081Z,4.30
2023-03-06T09:37:48.711Z,4.40
2023-03-06T09:41:04.796Z,4.38
2023-03-06T09:43:42.537Z,4.35
2023-03-06T09:46:36.284Z,4.42
2023-03-06T09:49:16.089Z,4.52
2023-03-06T09:52:14.876Z,4.72
2023-03-06T09:54:56.894Z,4.42
2023-03-06T09:57:30.649Z,4.13
2023-03-06T10:00:04.573Z,4.39
2023-03-06T10:02:53.411Z,4.83
2023-03-06T10:05:25.993Z,5.02
2023-03-06T10:08:03.359Z,5.03
2023-03-06T10:10:44.869Z,4.91
2023-03-06T10:13:40.983Z,4.82
2023-03-06T10:16:15.483Z,4.92
2023-03-06T10:18:41.938Z,4.86
2023-03-06T10:21:29.847Z,4.65
2023-03-06T10:24:18.101Z,4.81
2023-03-06T10:27:26.682Z,4.99
2023-03-06T10:30:11.198Z,4.97
2023-03-06T10:33:00.526Z,5.33
2023-03-06T10:35:48.131Z,5.24
2023-03-06T10:38:24.829Z,5.46
2023-03-06T10:41:13.165Z,5.01
2023-03-06T10:43:44.692Z,5.32
2023-03-06T10:46:27.329Z,5.40
2023-03-06T10:48:59.328Z,5.68
2023-03-06T10:51:27.005Z,5.22
2023-03-06T10:53:55.108Z,5.37
2023-03-06T10:56:32.082Z,5.26
2023-03-06T10:59:07.472Z,4.84
2023-03-06T11:01:34.400Z,4.91
2023-03-06T11:04:28.836Z,4.81
2023-03-06T11:07:16.183Z,5.03
2023-03-06T11:10:19.357Z,4.96
2023-03-06T11:12:59.546Z,5.26
2023-03-06T11:15:28.174Z,5.36
2023-03-06T11:18:05.100Z,5.40
2023-03-06T11:20:48.544Z,5.27
2023-03-06T11:23:21.778Z,4.85
2023-03-06T11:25:50.336Z,4.77
2023-03-06T11:28:31.576Z,4.77
2023-03-06T11:31:08.487Z,4.75
2023-03-06T11:33:54.092Z,4.98
2023-03-06T11:36:41.324Z,5.08
2023-03-06T11:39:34.144Z,4.81
2023-03-06T11:42:12.493Z,4.90
2023-03-06T11:45:11.141Z,5.21
2023-03-06T11:47:54.196Z,5.22
2023-03-06T11:50:37.426Z,5.16
2023-03-06T11:53:06.484Z,5.47
2023-03-06T11:55:51.259Z,5.45
2023-03-06T11:58:36.115Z,5.75
2023-03-06T12:01:24.176Z,5.79
2023-03-06T12:04:00.812Z,5.34
2023-03-06T12:06:34.898Z,5.15
2023-03-06T12:09:14.108Z,5.21
2023-03-06T12:12:10.264Z,5.46
2023-03-06T12:14:59.940Z,5.76
2023-03-06T12:18:00.356Z,5.85
2023-03-06T12:20:53.291Z,6.04
2023-03-06T12:23:25.451Z,5.87
2023-03-06T12:26:16.699Z,5.26
2023-03-06T12:28:50.276Z,5.55
2023-03-06T12:31:35.961Z,5.35
2023-03-06T12:34:29.954Z,5.34
2023-03-06T12:37:15.377Z,5.03
2023-03-06T12:39:50.818Z,5.07
2023-03-06T12:42:51.237Z,5.32
2023-03-06T12:45:37.943Z,5.52
2023-03-06T12:48:25.666Z,5.41
2023-03-06T12:50:52.554Z,5.81
2023-03-06T12:53:27.486Z,5.84
2023-03-06T12:55:54.695Z,6.23
2023-03-06T12:58:30.137Z,5.77
2023-03-06T13:01:36.566Z,5.63
2023-03-06T13:04:24.987Z,5.49
2023-03-06T13:07:22.745Z,5.47
2023-03-06T13:10:05.564Z,5.42
2023-03-06T13:12:43.777Z,5.40
2023-03-06T13:15:33.610Z,5.40
2023-03-06T13:18:00.503Z,5.57
2023-03-06T13:20:34.929Z,5.34
2023-03-06T13:23:29.406Z,5.22
2023-03-06T13:26:01.859Z,5.21
2023-03-06T13:28:45.016Z,5.33
2023-03-06T13:31:26.343Z,5.34
2023-03-06T13:33:56.584Z,5.42
2023-03-06T13:36:39.601Z,5.49
2023-03-06T13:39:10.765Z,5.48
2023-03-06T13:41:52.547Z,5.45
2023-03-06T13:44:24.862Z,5.30
2023-03-06T13:47:20.299Z,5.24
2023-03-06T13:49:48.227Z,5.13
2023-03-06T13:52:31.484Z,5.23
2023-03-06T13:55:27.457Z,5.15
2023-03-06T13:58:12.551Z,5.05
2023-03-06T14:00:54.107Z,5.04
2023-03-06T14:03:26.372Z,5.06
2023-03-06T14:05:52.902Z,5.05
2023-03-06T14:08:24.496Z,5.23
2023-03-06T14:11:19.400Z,5.29
2023-03-06T14:13:52.648Z,5.37
2023-03-06T14:16:25.226Z,5.22
2023-03-06T14:18:55.004Z,5.48
2023-03-06T14:21:47.653Z,5.12
2023-03-06T14:24:19.887Z,5.17
2023-03-06T14:26:49.584Z,5.15
2023-03-06T14:29:27.360Z,5.20
2023-03-06T14:31:56.510Z,5.20
2023-03-06T14:34:28.708Z,5.21
2023-03-06T14:36:59.785Z,5.15
2023-03-06T14:39:40.071Z,5.09
2023-03-06T14:42:24.685Z,5.31
2023-03-06T14:45:21.140Z,5.43
2023-03-06T14:47:52.333Z,5.36
2023-03-06T14:50:23.165Z,5.34
2023-03-06T14:53:04.228Z,5.34
2023-03-06T14:55:33.220Z,5.21
2023-03-06T14:58:05.359Z,5.35
2023-03-06T15:00:41.297Z,5.53
2023-03-06T15:03:16.340Z,5.66
2023-03-06T15:05:45.276Z,5.45
2023-03-06T15:08:17.632Z,5.55
2023-03-06T15:10:58.686Z,5.84
2023-03-06T15:13:27.520Z,5.83
2023-03-06T15:16:30.676Z,6.17
2023-03-06T15:19:04.028Z,6.40
2023-03-06T15:21:36.837Z,6.19
2023-03-06T15:24:34.102Z,6.50
2023-03-06T15:27:04.026Z,6.15
2023-03-06T15:29:31.033Z,5.84
2023-03-06T15:32:34.541Z,6.03
2023-03-06T15:35:26.572Z,5.87
2023-03-06T15:37:53.291Z,5.95
2023-03-06T15:40:22.173Z,5.96
2023-03-06T15:42:51.571Z,5.90
2023-03-06T15:45:23.339Z,5.82
2023-03-06T15:47:52.451Z,5.74
2023-03-06T15:50:25.167Z,5.74
2023-03-06T15:52:52.104Z,5.56
2023-03-06T15:55:22.313Z,5.63
2023-03-06T15:57:55.303Z,5.85
2023-03-06T16:00:28.326Z,5.96
2023-03-06T16:02:56.571Z,5.97
2023-03-06T16:05:23.804Z,6.13
2023-03-06T16:07:50.681Z,6.27
2023-03-06T16:10:20.393Z,6.34
2023-03-06T16:12:53.889Z,6.44
2023-03-06T16:15:22.987Z,6.62
2023-03-06T16:17:49.429Z,6.17
2023-03-06T16:20:18.193Z,6.50
2023-03-06T16:22:49.652Z,6.69
2023-03-06T16:25:17.805Z,6.90
2023-03-06T16:27:50.530Z,6.47
2023-03-06T16:30:18.847Z,6.46
2023-03-06T16:32:45.923Z,6.19
2023-03-06T16:35:13.002Z,6.43
2023-03-06T16:37:40.290Z,6.29
2023-03-06T16:40:28.906Z,6.08
2023-03-06T16:42:55.782Z,5.81
2023-03-06T16:45:23.162Z,5.57
2023-03-06T16:47:49.561Z,5.54
2023-03-06T16:50:26.022Z,5.35
2023-03-06T16:52:54.380Z,5.24
2023-03-06T16:55:21.064Z,5.37
2023-03-06T16:57:47.733Z,5.62
2023-03-06T17:00:15.769Z,5.52
2023-03-06T17:02:47.553Z,5.34
2023-03-06T17:05:14.684Z,5.34
2023-03-06T17:07:41.220Z,5.46
2023-03-06T17:10:10.970Z,5.38
2023-03-06T17:12:37.305Z,5.29
2023-03-06T17:15:05.536Z,5.33
2023-03-06T17:17:32.347Z,5.53
2023-03-06T17:19:58.942Z,5.34
2023-03-06T17:22:27.290Z,5.22
2023-03-06T17:24:54.276Z,5.29
2023-03-06T17:27:22.133Z,5.26
2023-03-06T17:29:48.556Z,5.28
2023-03-06T17:32:15.096Z,5.19
2023-03-06T17:34:41.630Z,5.37
2023-03-06T17:37:08.039Z,5.51
2023-03-06T17:39:36.814Z,5.45
2023-03-06T17:42:04.601Z,5.38
2023-03-06T17:44:32.484Z,5.07
2023-03-06T17:46:59.216Z,5.12
2023-03-06T17:49:25.606Z,5.07
2023-03-06T17:51:52.424Z,4.99
2023-03-06T17:54:19.550Z,5.06
2023-03-06T17:56:46.216Z,5.18
2023-03-06T17:59:12.601Z,5.25
2023-03-06T18:01:38.948Z,5.43
2023-03-06T18:04:05.510Z,5.58
2023-03-06T18:06:33.441Z,5.41
2023-03-06T18:09:00.639Z,5.25
2023-03-06T18:11:27.917Z,4.98
2023-03-06T18:13:54.356Z,5.11
2023-03-06T18:16:23.624Z,5.35
2023-03-06T18:18:54.755Z,5.19
2023-03-06T18:21:24.656Z,5.33
2023-03-06T18:23:51.199Z,5.00
2023-03-06T18:26:21.757Z,5.26
2023-03-06T18:28:52.131Z,5.50
2023-03-06T18:31:24.217Z,5.47
2023-03-06T18:33:52.634Z,5.51
2023-03-06T18:36:20.897Z,5.37
2023-03-06T18:38:47.926Z,5.17
2023-03-06T18:41:14.466Z,5.56
2023-03-06T18:43:40.836Z,5.71
2023-03-06T18:46:07.606Z,5.81
2023-03-06T18:48:34.056Z,5.64
2023-03-06T18:51:09.176Z,5.28
2023-03-06T18:53:36.203Z,5.48
2023-03-06T18:56:03.374Z,5.29
2023-03-06T18:58:29.777Z,5.03
2023-03-06T19:00:58.334Z,5.21
2023-03-06T19:03:25.630Z,5.13
2023-03-06T19:05:52.141Z,4.91
2023-03-06T19:08:18.849Z,4.89
2023-03-06T19:10:47.214Z,4.97
2023-03-06T19:13:13.862Z,4.96
2023-03-06T19:15:48.208Z,5.09
2023-03-06T19:18:16.930Z,5.25
2023-03-06T19:20:44.647Z,5.31
2023-03-06T19:23:11.315Z,5.02
2023-03-06T19:25:37.741Z,5.24
2023-03-06T19:28:04.395Z,5.49
2023-03-06T19:30:30.866Z,5.65
2023-03-06T19:32:57.350Z,5.06
2023-03-06T19:35:24.864Z,5.06
2023-03-06T19:37:51.841Z,4.87
2023-03-06T19:40:18.709Z,4.89
2023-03-06T19:42:45.307Z,5.16
2023-03-06T19:45:11.964Z,4.75
2023-03-06T19:47:38.399Z,4.80
2023-03-06T19:50:05.049Z,4.95
2023-03-06T19:52:31.424Z,4.89
2023-03-06T19:54:57.738Z,4.76
2023-03-06T19:57:24.078Z,4.84
2023-03-06T19:59:51.274Z,4.91
2023-03-06T20:02:19.516Z,4.88
2023-03-06T20:04:46.695Z,4.53
2023-03-06T20:07:13.063Z,4.63
2023-03-06T20:09:39.414Z,4.80
2023-03-06T20:12:08.215Z,4.99
2023-03-06T20:14:34.752Z,5.27
2023-03-06T20:17:01.068Z,5.51
2023-03-06T20:19:27.579Z,5.48
2023-03-06T20:21:53.993Z,5.38
2023-03-06T20:24:20.406Z,5.21
2023-03-06T20:26:48.816Z,5.30
2023-03-06T20:29:15.151Z,5.20
2023-03-06T20:31:41.718Z,5.26
2023-03-06T20:34:08.101Z,4.97
2023-03-06T20:36:37.065Z,4.94
2023-03-06T20:39:05.938Z,4.55
2023-03-06T20:41:32.923Z,4.71
2023-03-06T20:44:00.817Z,4.87
2023-03-06T20:46:27.483Z,5.16
2023-03-06T20:48:54.774Z,5.38
2023-03-06T20:51:30.102Z,5.16
2023-03-06T20:53:56.517Z,5.39
2023-03-06T20:56:25.856Z,5.25
2023-03-06T20:58:52.921Z,5.31
2023-03-06T21:01:24.134Z,5.25
2023-03-06T21:03:51.070Z,5.07
2023-03-06T21:06:18.046Z,5.10
2023-03-06T21:08:44.669Z,5.02
2023-03-06T21:11:11.288Z,5.03
2023-03-06T21:13:37.923Z,4.96
2023-03-06T21:16:10.217Z,4.87
2023-03-06T21:18:36.571Z,5.08
2023-03-06T21:21:07.513Z,5.03
2023-03-06T21:23:33.840Z,5.06
2023-03-06T21:26:00.185Z,4.75
2023-03-06T21:28:26.865Z,4.87
2023-03-06T21:30:53.363Z,4.76
2023-03-06T21:33:19.709Z,4.51
2023-03-06T21:35:46.876Z,4.71
2023-03-06T21:38:14.035Z,4.52
2023-03-06T21:40:40.995Z,4.84
2023-03-06T21:43:07.332Z,4.74
2023-03-06T21:45:33.680Z,5.01
2023-03-06T21:48:00.655Z,4.88
2023-03-06T21:50:27.597Z,4.75
2023-03-06T21:52:56.133Z,4.68
2023-03-06T21:55:22.907Z,5.05
2023-03-06T21:57:50.856Z,5.23
2023-03-06T22:00:19.282Z,4.96
2023-03-06T22:02:46.652Z,4.75
2023-03-06T22:05:13.487Z,4.65
2023-03-06T22:07:39.892Z,4.63
2023-03-06T22:10:09.254Z,4.36
2023-03-06T22:12:36.308Z,4.46
2023-03-06T22:15:02.685Z,4.58
2023-03-06T22:17:30.378Z,4.66
2023-03-06T22:19:56.756Z,4.47
2023-03-06T22:22:23.379Z,4.38
2023-03-06T22:24:49.722Z,4.30
2023-03-06T22:27:16.645Z,4.34
2023-03-06T22:29:43.235Z,4.11
2023-03-06T22:32:09.676Z,4.32
2023-03-06T22:34:36.096Z,4.38
2023-03-06T22:37:02.438Z,4.09
2023-03-06T22:39:28.769Z,4.35
2023-03-06T22:41:55.727Z,4.19
2023-03-06T22:44:22.484Z,4.23
2023-03-06T22:46:48.872Z,4.27
2023-03-06T22:49:16.724Z,4.13
2023-03-06T22:51:43.516Z,4.12
2023-03-06T22:54:10.066Z,4.11
2023-03-06T22:56:36.631Z,4.15
2023-03-06T22:59:04.251Z,4.25
2023-03-06T23:01:33.291Z,4.12
2023-03-06T23:04:02.207Z,4.26
2023-03-06T23:06:33.968Z,3.93
2023-03-06T23:09:04.176Z,4.11
2023-03-06T23:11:31.461Z,4.05
2023-03-06T23:13:58.263Z,4.08
2023-03-06T23:16:25.064Z,4.08
2023-03-06T23:18:52.982Z,3.93
2023-03-06T23:21:22.095Z,3.88
2023-03-06T23:23:50.715Z,3.95
2023-03-06T23:26:18.910Z,3.97
2023-03-06T23:28:45.372Z,4.10
2023-03-06T23:31:15.887Z,4.16
2023-03-06T23:33:42.439Z,4.25
2023-03-06T23:36:13.875Z,4.40
2023-03-06T23:38:40.904Z,4.60
2023-03-06T23:41:12.720Z,4.14
2023-03-06T23:43:39.677Z,4.03
2023-03-06T23:46:07.128Z,3.99
2023-03-06T23:48:35.323Z,3.98
2023-03-06T23:51:08.478Z,4.06
2023-03-06T23:53:35.321Z,4.06
2023-03-06T23:56:07.472Z,4.24
2023-03-06T23:58:34.181Z,4.22
